createdAt,value
2023-11-02T00:01:55.474Z,15.60
2023-11-02T00:04:29.743Z,15.20
2023-11-02T00:06:58.657Z,14.70
2023-11-02T00:09:35.729Z,14.10
2023-11-02T00:12:13.477Z,15.60
2023-11-02T00:14:52.399Z,15.80
2023-11-02T00:17:36.484Z,15.20
2023-11-02T00:20:08.207Z,17.30
2023-11-02T00:22:45.145Z,16.10
2023-11-02T00:25:45.314Z,15.40
2023-11-02T00:28:13.578Z,15.30
2023-11-02T00:30:47.273Z,14.40
2023-11-02T00:33:24.281Z,14.10
2023-11-02T00:35:53.887Z,15.10
2023-11-02T00:38:28.785Z,9.80
2023-11-02T00:40:58.814Z,15.10
2023-11-02T00:43:30.566Z,14.20
2023-11-02T00:45:59.229Z,14.60
2023-11-02T00:48:33.336Z,14.10
2023-11-02T00:51:25.871Z,14.00
2023-11-02T00:54:01.760Z,14.00
2023-11-02T00:56:40.018Z,15.00
2023-11-02T00:59:18.817Z,13.80
2023-11-02T01:01:49.261Z,13.50
2023-11-02T01:04:49.321Z,13.80
2023-11-02T01:07:17.580Z,13.30
2023-11-02T01:09:48.770Z,12.80
2023-11-02T01:28:07.904Z,11.30
2023-11-02T01:30:36.238Z,11.90
2023-11-02T01:33:36.172Z,12.20
2023-11-02T01:36:08.063Z,11.80
2023-11-02T01:38:36.437Z,11.80
2023-11-02T01:41:23.230Z,11.20
2023-11-02T01:44:14.315Z,11.60
2023-11-02T01:47:11.819Z,11.60
2023-11-02T01:50:07.661Z,12.10
2023-11-02T01:52:37.945Z,11.10
2023-11-02T01:58:06.579Z,10.60
2023-11-02T02:00:51.807Z,9.90
2023-11-02T02:03:43.209Z,10.20
2023-11-02T02:06:33.174Z,10.30
2023-11-02T02:09:33.595Z,10.60
2023-11-02T02:12:31.448Z,10.00
2023-11-02T02:15:12.547Z,10.60
2023-11-02T02:18:02.106Z,9.60
2023-11-02T02:20:36.468Z,10.70
2023-11-02T02:23:09.410Z,10.10
2023-11-02T02:25:59.423Z,9.00
2023-11-02T02:28:55.570Z,9.70
2023-11-02T02:32:02.164Z,9.30
2023-11-02T02:34:45.734Z,9.90
2023-11-02T02:37:39.448Z,10.10
2023-11-02T02:40:09.505Z,9.70
2023-11-02T02:42:38.856Z,9.50
2023-11-02T02:45:16.204Z,9.20
2023-11-02T02:47:46.435Z,8.40
2023-11-02T02:50:19.523Z,10.50
2023-11-02T02:52:50.642Z,9.00
2023-11-02T02:55:22.681Z,9.10
2023-11-02T02:57:54.837Z,8.70
2023-11-02T03:00:29.772Z,10.50
2023-11-02T03:03:00.183Z,10.10
2023-11-02T03:05:30.307Z,9.80
2023-11-02T03:08:10.306Z,9.70
2023-11-02T03:10:40.257Z,9.70
2023-11-02T03:13:15.512Z,10.10
2023-11-02T03:15:47.493Z,9.60
2023-11-02T03:18:15.480Z,9.10
2023-11-02T03:20:44.172Z,10.10
2023-11-02T03:23:23.510Z,9.30
2023-11-02T03:26:11.048Z,9.40
2023-11-02T03:29:02.511Z,9.80
2023-11-02T03:31:42.460Z,9.30
2023-11-02T03:34:19.198Z,8.80
2023-11-02T03:37:00.427Z,9.50
2023-11-02T03:39:37.516Z,8.80
2023-11-02T03:42:18.192Z,9.90
2023-11-02T03:45:03.418Z,8.60
2023-11-02T03:47:58.691Z,8.90
2023-11-02T03:51:05.721Z,9.20
2023-11-02T03:53:47.435Z,9.20
2023-11-02T03:56:35.082Z,9.70
2023-11-02T03:59:13.045Z,8.40
2023-11-02T04:02:00.434Z,8.60
2023-11-02T04:04:40.574Z,8.60
2023-11-02T04:07:23.401Z,8.90
2023-11-02T04:10:00.271Z,8.70
2023-11-02T04:12:33.395Z,9.30
2023-11-02T04:15:02.882Z,8.80
2023-11-02T04:17:31.315Z,9.90
2023-11-02T04:20:05.629Z,10.30
2023-11-02T04:22:35.815Z,9.90
2023-11-02T04:25:07.242Z,9.50
2023-11-02T04:27:35.606Z,9.30
2023-11-02T04:30:03.864Z,9.30
2023-11-02T04:32:33.016Z,10.30
2023-11-02T04:35:03.575Z,9.60
2023-11-02T04:37:31.622Z,10.10
2023-11-02T04:39:59.509Z,9.30
2023-11-02T04:42:27.327Z,10.20
2023-11-02T04:45:00.620Z,9.60
2023-11-02T04:47:29.218Z,10.00
2023-11-02T04:49:58.231Z,10.60
2023-11-02T04:52:35.245Z,9.50
2023-11-02T04:55:06.363Z,9.80
2023-11-02T04:57:36.639Z,10.20
2023-11-02T05:00:05.577Z,9.00
2023-11-02T05:02:36.262Z,8.90
2023-11-02T05:05:04.457Z,8.90
2023-11-02T05:07:32.456Z,8.70
2023-11-02T05:10:00.580Z,9.10
2023-11-02T05:12:28.869Z,9.90
2023-11-02T05:14:59.361Z,9.40
2023-11-02T05:17:29.981Z,10.70
2023-11-02T05:19:58.548Z,12.50
2023-11-02T05:22:28.940Z,12.70
2023-11-02T05:24:58.749Z,14.70
2023-11-02T05:27:26.941Z,12.60
2023-11-02T05:29:57.194Z,10.00
2023-11-02T05:32:27.891Z,9.80
2023-11-02T05:34:55.862Z,8.10
2023-11-02T05:37:26.328Z,7.70
2023-11-02T05:39:55.797Z,8.10
2023-11-02T05:42:24.426Z,8.20
2023-11-02T05:44:52.438Z,8.40
2023-11-02T05:47:20.598Z,9.10
2023-11-02T05:49:53.149Z,8.60
2023-11-02T05:52:26.692Z,10.20
2023-11-02T05:54:59.475Z,10.10
2023-11-02T05:57:30.314Z,10.50
2023-11-02T06:00:00.057Z,10.30
2023-11-02T06:02:34.873Z,9.60
2023-11-02T06:05:09.321Z,10.00
2023-11-02T06:07:37.966Z,9.90
2023-11-02T06:10:10.165Z,9.90
2023-11-02T06:12:43.447Z,9.60
2023-11-02T06:15:12.419Z,9.40
2023-11-02T06:17:43.274Z,9.20
2023-11-02T06:20:44.371Z,9.70
2023-11-02T06:23:14.933Z,8.00
2023-11-02T06:25:46.081Z,8.20
2023-11-02T06:28:19.479Z,8.30
2023-11-02T06:30:47.660Z,9.20
2023-11-02T06:33:48.735Z,8.20
2023-11-02T06:36:16.949Z,7.10
2023-11-02T06:38:47.290Z,6.70
2023-11-02T06:41:19.941Z,7.00
2023-11-02T06:43:48.161Z,6.80
2023-11-02T06:46:16.318Z,7.30
2023-11-02T06:48:44.979Z,7.30
2023-11-02T06:51:13.075Z,8.80
2023-11-02T06:53:43.261Z,7.20
2023-11-02T06:56:11.201Z,7.60
2023-11-02T06:58:39.475Z,7.60
2023-11-02T07:01:07.805Z,7.40
2023-11-02T07:03:35.771Z,6.90
2023-11-02T07:06:07.327Z,7.50
2023-11-02T07:08:37.863Z,6.80
2023-11-02T07:11:08.531Z,6.50
2023-11-02T07:13:36.536Z,7.20
2023-11-02T07:16:07.672Z,6.50
2023-11-02T07:18:40.815Z,7.20
2023-11-02T07:21:11.583Z,6.40
2023-11-02T07:23:41.956Z,5.80
2023-11-02T07:26:10.040Z,5.70
2023-11-02T07:28:40.388Z,5.30
2023-11-02T07:31:08.695Z,5.60
2023-11-02T07:33:42.300Z,5.80
2023-11-02T07:36:23.513Z,6.20
2023-11-02T07:38:56.585Z,7.00
2023-11-02T07:43:55.147Z,6.70
2023-11-02T07:46:23.245Z,6.80
2023-11-02T07:48:53.958Z,6.50
2023-11-02T07:51:24.071Z,6.40
2023-11-02T07:53:54.695Z,5.70
2023-11-02T07:56:25.415Z,6.50
2023-11-02T07:58:53.302Z,6.50
2023-11-02T08:01:25.395Z,6.10
2023-11-02T08:03:56.211Z,5.60
2023-11-02T08:06:24.605Z,6.20
2023-11-02T08:08:55.768Z,5.90
2023-11-02T08:11:23.830Z,5.70
2023-11-02T08:13:55.024Z,5.20
2023-11-02T08:16:23.250Z,6.40
2023-11-02T08:18:53.884Z,5.60
2023-11-02T08:21:26.929Z,5.30
2023-11-02T08:23:58.060Z,5.00
2023-11-02T08:26:28.696Z,6.00
2023-11-02T08:28:58.889Z,5.60
2023-11-02T08:31:30.589Z,5.10
2023-11-02T08:34:03.307Z,4.90
2023-11-02T08:36:33.206Z,4.80
2023-11-02T08:39:01.724Z,4.90
2023-11-02T08:41:35.295Z,4.70
2023-11-02T08:44:05.359Z,4.00
2023-11-02T08:46:38.084Z,4.20
2023-11-02T08:49:11.170Z,4.20
2023-11-02T08:51:45.938Z,4.00
2023-11-02T08:56:51.537Z,3.40
2023-11-02T08:59:22.260Z,4.20
2023-11-02T09:01:54.038Z,3.50
2023-11-02T09:04:22.132Z,3.50
2023-11-02T09:06:53.245Z,4.10
2023-11-02T09:09:23.480Z,3.40
2023-11-02T09:11:51.802Z,3.10
2023-11-02T09:14:19.922Z,3.70
2023-11-02T09:16:48.446Z,4.00
2023-11-02T09:19:18.843Z,3.60
2023-11-02T09:21:48.541Z,3.40
2023-11-02T09:24:19.308Z,2.90
2023-11-02T09:26:49.750Z,3.10
2023-11-02T09:32:02.068Z,3.00
2023-11-02T09:34:39.821Z,2.20
2023-11-02T09:37:11.449Z,3.60
2023-11-02T09:39:41.922Z,4.00
2023-11-02T09:42:09.893Z,3.20
2023-11-02T09:44:38.872Z,3.20
2023-11-02T09:47:12.376Z,2.70
2023-11-02T09:49:40.346Z,3.10
2023-11-02T09:52:14.251Z,2.70
2023-11-02T09:54:48.038Z,2.40
2023-11-02T09:57:18.659Z,3.00
2023-11-02T09:59:47.654Z,2.80
2023-11-02T10:02:18.689Z,2.70
2023-11-02T10:04:46.886Z,3.00
2023-11-02T10:07:15.499Z,2.60
2023-11-02T10:09:44.506Z,2.50
2023-11-02T10:12:13.046Z,2.10
2023-11-02T10:14:41.239Z,2.20
2023-11-02T10:17:12.961Z,2.50
2023-11-02T10:19:44.276Z,2.60
2023-11-02T10:22:14.920Z,2.10
2023-11-02T10:24:44.135Z,2.40
2023-11-02T10:27:12.485Z,2.30
2023-11-02T10:29:46.634Z,2.40
2023-11-02T10:32:17.247Z,2.10
2023-11-02T10:34:50.648Z,2.20
2023-11-02T10:37:37.354Z,2.30
2023-11-02T10:40:08.864Z,2.00
2023-11-02T10:42:44.090Z,2.10
2023-11-02T10:45:17.688Z,2.50
2023-11-02T10:47:47.772Z,2.60
2023-11-02T10:50:19.957Z,2.60
2023-11-02T10:52:58.490Z,2.50
2023-11-02T10:55:32.706Z,2.00
2023-11-02T10:58:05.132Z,2.00
2023-11-02T11:00:35.245Z,2.90
2023-11-02T11:03:10.899Z,1.80
2023-11-02T11:05:41.293Z,1.70
2023-11-02T11:08:14.328Z,1.90
2023-11-02T11:10:50.876Z,2.20
2023-11-02T11:13:19.498Z,1.70
2023-11-02T11:15:50.901Z,1.90
2023-11-02T11:18:19.257Z,1.50
2023-11-02T11:20:47.513Z,1.70
2023-11-02T11:23:19.161Z,1.90
2023-11-02T11:26:04.915Z,1.80
2023-11-02T11:28:39.956Z,11.20
2023-11-02T11:31:28.316Z,8.50
2023-11-02T11:33:57.374Z,22.60
2023-11-02T11:36:27.913Z,16.40
2023-11-02T11:38:57.829Z,5.80
2023-11-02T11:41:49.647Z,4.10
2023-11-02T11:44:27.679Z,8.70
2023-11-02T11:46:57.700Z,2.50
2023-11-02T11:49:35.127Z,1.90
2023-11-02T11:52:04.571Z,1.70
2023-11-02T11:54:34.737Z,1.40
2023-11-02T11:57:02.782Z,1.90
2023-11-02T12:00:01.031Z,1.70
2023-11-02T12:02:44.420Z,1.70
2023-11-02T12:05:13.254Z,2.00
2023-11-02T12:07:41.416Z,1.60
2023-11-02T12:10:13.212Z,1.60
2023-11-02T12:12:44.534Z,1.30
2023-11-02T12:15:21.659Z,1.60
2023-11-02T12:17:55.503Z,1.60
2023-11-02T12:20:35.563Z,1.70
2023-11-02T12:23:05.927Z,2.00
2023-11-02T12:25:36.432Z,1.70
2023-11-02T12:28:08.019Z,1.50
2023-11-02T12:30:42.638Z,1.50
2023-11-02T12:33:11.213Z,1.50
2023-11-02T12:35:42.124Z,1.40
2023-11-02T12:38:13.320Z,1.40
2023-11-02T12:40:55.016Z,1.60
2023-11-02T12:43:25.516Z,2.00
2023-11-02T12:46:05.364Z,1.60
2023-11-02T12:48:35.148Z,1.40
2023-11-02T12:51:42.867Z,1.60
2023-11-02T12:54:18.602Z,1.70
2023-11-02T12:56:55.581Z,1.30
2023-11-02T12:59:27.886Z,1.60
2023-11-02T13:02:03.830Z,1.40
2023-11-02T13:04:48.107Z,1.50
2023-11-02T13:07:34.631Z,1.60
2023-11-02T13:10:11.286Z,1.80
2023-11-02T13:28:09.810Z,1.90
2023-11-02T13:30:40.740Z,1.60
2023-11-02T13:33:10.153Z,1.60
2023-11-02T13:35:38.337Z,1.60
2023-11-02T13:38:06.981Z,1.50
2023-11-02T13:40:34.973Z,1.50
2023-11-02T13:43:03.403Z,2.20
2023-11-02T13:45:32.857Z,1.80
2023-11-02T13:48:01.544Z,1.40
2023-11-02T13:50:30.239Z,2.00
2023-11-02T13:53:02.100Z,1.90
2023-11-02T13:55:34.331Z,1.80
2023-11-02T13:58:04.942Z,1.80
2023-11-02T14:00:33.416Z,1.80
2023-11-02T14:03:07.168Z,1.70
2023-11-02T14:05:45.724Z,1.70
2023-11-02T14:08:13.846Z,1.60
2023-11-02T14:10:44.363Z,2.10
2023-11-02T14:13:14.830Z,2.20
2023-11-02T14:15:45.712Z,2.50
2023-11-02T14:18:13.720Z,1.70
2023-11-02T14:20:45.265Z,2.00
2023-11-02T14:23:17.995Z,2.00
2023-11-02T14:25:49.557Z,1.70
2023-11-02T14:28:18.012Z,2.00
2023-11-02T14:30:49.164Z,1.80
2023-11-02T14:33:17.768Z,2.10
2023-11-02T14:35:46.108Z,2.10
2023-11-02T14:38:40.406Z,2.40
2023-11-02T14:41:09.244Z,3.00
2023-11-02T14:43:39.421Z,3.50
2023-11-02T14:46:10.619Z,2.20
2023-11-02T14:48:39.308Z,2.40
2023-11-02T14:51:08.402Z,2.50
2023-11-02T14:53:39.225Z,2.50
2023-11-02T14:56:07.877Z,3.40
2023-11-02T14:58:40.974Z,2.80
2023-11-02T15:01:13.942Z,3.20
2023-11-02T15:03:45.023Z,3.20
2023-11-02T15:06:20.210Z,2.80
2023-11-02T15:08:57.912Z,2.70
2023-11-02T15:11:34.305Z,2.50
2023-11-02T15:14:03.063Z,2.40
2023-11-02T15:16:33.281Z,2.80
2023-11-02T15:19:01.389Z,2.30
2023-11-02T15:21:29.619Z,2.40
2023-11-02T15:23:57.620Z,2.60
2023-11-02T15:26:25.568Z,3.00
2023-11-02T15:28:58.058Z,3.30
2023-11-02T15:31:27.106Z,3.10
2023-11-02T15:33:57.048Z,2.60
2023-11-02T15:36:27.763Z,2.90
2023-11-02T15:38:56.081Z,2.40
2023-11-02T15:41:27.143Z,2.90
2023-11-02T15:43:57.605Z,3.00
2023-11-02T15:46:26.158Z,3.60
2023-11-02T15:48:57.155Z,3.40
2023-11-02T15:51:26.182Z,3.60
2023-11-02T15:53:54.429Z,3.60
2023-11-02T15:56:25.351Z,4.10
2023-11-02T15:58:53.538Z,3.80
2023-11-02T16:01:29.458Z,2.90
2023-11-02T16:03:58.527Z,2.80
2023-11-02T16:06:26.963Z,2.50
2023-11-02T16:08:58.122Z,2.60
2023-11-02T16:11:28.799Z,2.70
2023-11-02T16:14:03.948Z,3.00
2023-11-02T16:16:34.966Z,2.80
2023-11-02T16:19:06.066Z,3.30
2023-11-02T16:21:33.977Z,3.60
2023-11-02T16:24:05.374Z,3.80
2023-11-02T16:26:38.993Z,3.70
2023-11-02T16:29:07.370Z,3.50
2023-11-02T16:31:37.821Z,3.90
2023-11-02T16:34:06.396Z,3.80
2023-11-02T16:36:51.160Z,4.20
2023-11-02T16:39:20.900Z,4.30
2023-11-02T16:41:53.902Z,4.40
2023-11-02T16:44:25.360Z,4.30
2023-11-02T16:47:00.429Z,4.60
2023-11-02T16:49:31.185Z,4.70
2023-11-02T16:52:00.553Z,5.30
2023-11-02T16:54:30.877Z,6.20
2023-11-02T16:57:01.192Z,6.00
2023-11-02T16:59:29.530Z,4.80
2023-11-02T17:01:57.732Z,4.70
2023-11-02T17:04:30.256Z,4.40
2023-11-02T17:06:59.485Z,4.00
2023-11-02T17:09:29.902Z,4.30
2023-11-02T17:12:00.404Z,4.90
2023-11-02T17:14:30.711Z,5.60
2023-11-02T17:16:58.730Z,5.30
2023-11-02T17:19:29.940Z,6.20
2023-11-02T17:22:00.571Z,5.10
2023-11-02T17:24:29.465Z,5.10
2023-11-02T17:27:00.193Z,5.20
2023-11-02T17:29:28.843Z,4.50
2023-11-02T17:31:57.259Z,3.60
2023-11-02T17:34:30.511Z,4.40
2023-11-02T17:37:03.312Z,6.10
2023-11-02T17:39:31.588Z,7.20
2023-11-02T17:41:59.521Z,8.10
2023-11-02T17:44:30.317Z,8.50
2023-11-02T17:47:01.252Z,9.10
2023-11-02T17:49:29.356Z,8.90
2023-11-02T17:52:07.185Z,7.10
2023-11-02T17:54:35.945Z,5.90
2023-11-02T17:57:04.725Z,6.30
2023-11-02T17:59:38.205Z,6.80
2023-11-02T18:02:08.883Z,5.80
2023-11-02T18:04:39.316Z,5.70
2023-11-02T18:07:12.209Z,4.70
2023-11-02T18:09:41.717Z,4.20
2023-11-02T18:12:10.124Z,4.30
2023-11-02T18:14:38.045Z,5.80
2023-11-02T18:17:05.933Z,6.20
2023-11-02T18:19:34.066Z,7.70
2023-11-02T18:22:02.911Z,5.80
2023-11-02T18:24:31.124Z,5.60
2023-11-02T18:27:04.246Z,4.30
2023-11-02T18:29:32.624Z,4.10
2023-11-02T18:32:00.700Z,3.80
2023-11-02T18:34:30.879Z,3.80
2023-11-02T18:37:01.339Z,3.50
2023-11-02T18:39:29.422Z,3.70
2023-11-02T18:41:57.559Z,3.80
2023-11-02T18:44:25.658Z,3.70
2023-11-02T18:46:56.600Z,3.80
2023-11-02T18:49:27.084Z,3.80
2023-11-02T18:51:55.208Z,4.50
2023-11-02T18:54:24.458Z,4.00
2023-11-02T18:56:54.470Z,3.50
2023-11-02T18:59:22.387Z,3.40
2023-11-02T19:01:53.955Z,3.80
2023-11-02T19:04:24.205Z,3.80
2023-11-02T19:06:53.101Z,3.60
2023-11-02T19:09:23.565Z,4.30
2023-11-02T19:11:53.897Z,3.60
2023-11-02T19:14:24.000Z,4.20
2023-11-02T19:16:51.989Z,3.30
2023-11-02T19:19:20.237Z,3.40
2023-11-02T19:21:52.976Z,3.90
2023-11-02T19:24:30.215Z,4.10
2023-11-02T19:26:58.392Z,3.90
2023-11-02T19:29:26.569Z,4.10
2023-11-02T19:31:59.141Z,4.00
2023-11-02T19:36:56.685Z,3.70
2023-11-02T19:39:29.436Z,3.60
2023-11-02T19:42:01.211Z,3.90
2023-11-02T19:44:29.176Z,4.00
2023-11-02T19:47:00.261Z,3.80
2023-11-02T19:49:28.444Z,4.30
2023-11-02T19:51:56.610Z,3.80
2023-11-02T19:54:24.585Z,4.40
2023-11-02T19:56:55.506Z,4.20
2023-11-02T19:59:26.078Z,4.10
2023-11-02T20:01:54.105Z,3.80
2023-11-02T20:04:23.070Z,4.40
2023-11-02T20:06:51.796Z,3.80
2023-11-02T20:09:19.729Z,4.00
2023-11-02T20:11:50.779Z,4.60
2023-11-02T20:14:19.147Z,4.40
2023-11-02T20:16:50.494Z,4.90
2023-11-02T20:19:18.520Z,4.70
2023-11-02T20:21:51.492Z,4.40
2023-11-02T20:24:22.321Z,3.60
2023-11-02T20:26:50.485Z,4.00
2023-11-02T20:29:18.610Z,4.00
2023-11-02T20:31:46.698Z,3.90
2023-11-02T20:34:19.610Z,3.80
2023-11-02T20:36:52.947Z,4.20
2023-11-02T20:39:21.178Z,4.00
2023-11-02T20:41:56.431Z,3.40
2023-11-02T20:44:25.337Z,4.20
2023-11-02T20:46:56.638Z,3.90
2023-11-02T20:49:25.426Z,4.30
2023-11-02T20:51:53.696Z,3.90
2023-11-02T20:54:21.602Z,4.00
2023-11-02T20:56:49.751Z,3.70
2023-11-02T20:59:19.912Z,3.80
2023-11-02T21:01:47.811Z,3.70
2023-11-02T21:04:18.392Z,3.70
2023-11-02T21:06:54.887Z,3.60
2023-11-02T21:09:31.203Z,4.70
2023-11-02T21:12:00.730Z,3.30
2023-11-02T21:14:29.902Z,3.80
2023-11-02T21:17:03.163Z,3.90
2023-11-02T21:19:31.230Z,4.20
2023-11-02T21:22:01.539Z,3.90
2023-11-02T21:24:40.748Z,4.00
2023-11-02T21:27:08.948Z,3.90
2023-11-02T21:29:42.610Z,4.00
2023-11-02T21:32:12.909Z,3.70
2023-11-02T21:34:45.260Z,4.20
2023-11-02T21:37:15.674Z,4.20
2023-11-02T21:39:43.970Z,3.50
2023-11-02T21:42:12.735Z,4.10
2023-11-02T21:44:43.736Z,4.30
2023-11-02T21:47:14.416Z,4.40
2023-11-02T21:49:44.506Z,4.30
2023-11-02T21:54:42.791Z,5.00
2023-11-02T21:57:10.933Z,4.30
2023-11-02T21:59:41.731Z,3.90
2023-11-02T22:02:09.860Z,4.80
2023-11-02T22:04:41.097Z,4.70
2023-11-02T22:07:14.160Z,4.20
2023-11-02T22:09:44.410Z,3.90
2023-11-02T22:12:12.338Z,5.10
2023-11-02T22:14:40.851Z,4.20
2023-11-02T22:17:08.974Z,4.90
2023-11-02T22:19:43.857Z,4.50
2023-11-02T22:22:15.848Z,4.70
2023-11-02T22:24:46.258Z,4.40
2023-11-02T22:27:14.338Z,4.00
2023-11-02T22:29:42.412Z,4.40
2023-11-02T22:32:14.087Z,4.60
2023-11-02T22:34:43.103Z,5.10
2023-11-02T22:37:14.752Z,4.70
2023-11-02T22:39:43.228Z,5.60
2023-11-02T22:42:11.892Z,5.30
2023-11-02T22:44:41.107Z,5.10
2023-11-02T22:47:09.059Z,5.00
2023-11-02T22:49:40.246Z,5.20
2023-11-02T22:52:11.087Z,4.70
2023-11-02T22:54:39.997Z,4.40
2023-11-02T22:57:10.229Z,4.30
2023-11-02T22:59:41.059Z,4.60
2023-11-02T23:02:09.970Z,4.40
2023-11-02T23:04:40.639Z,4.10
2023-11-02T23:07:11.636Z,4.40
2023-11-02T23:09:39.652Z,4.30
2023-11-02T23:12:08.013Z,4.70
2023-11-02T23:14:36.035Z,4.50
2023-11-02T23:17:03.882Z,4.20
2023-11-02T23:19:31.760Z,4.40
2023-11-02T23:22:06.028Z,4.70
2023-11-02T23:24:39.316Z,4.60
2023-11-02T23:27:12.333Z,4.10
2023-11-02T23:29:42.689Z,4.10
2023-11-02T23:32:10.709Z,4.30
2023-11-02T23:34:38.964Z,4.30
2023-11-02T23:42:16.720Z,4.50
2023-11-02T23:45:40.752Z,5.40
2023-11-02T23:48:11.112Z,5.00
2023-11-02T23:50:42.570Z,5.00
2023-11-02T23:53:12.526Z,5.60
2023-11-02T23:55:41.123Z,5.60
2023-11-02T23:58:11.840Z,5.50
